Time;durP1;ratioP1;P1;durP2;ratioP2;P2;SDS_P1;SDS_P2;PMS_P1;PMS_P2;Temp;Humidity;BMP_temperature;BMP_pressure;BME280_temperature;BME280_humidity;BME280_pressure;Samples;Min_cycle;Max_cycle;Signal;HPM_P1;HPM_P2
2021/12/08 11:21:24;;;;;;;8.73;2.25;;;5.80;99.90;;;;;;5047835;28;20103;-66
2021/12/08 11:23:52;;;;;;;6.40;2.53;;;5.70;99.90;;;;;;5031905;28;20381;-65
2021/12/08 11:26:27;;;;;;;11.52;2.80;;;5.70;99.90;;;;;;5031813;28;20037;-65
2021/12/08 11:28:58;;;;;;;15.18;3.05;;;5.70;99.90;;;;;;5029782;28;20433;-65
2021/12/08 11:31:27;;;;;;;10.45;3.38;;;5.70;99.90;;;;;;5026177;28;20114;-71
2021/12/08 11:34:00;;;;;;;8.27;2.55;;;5.60;99.90;;;;;;5031010;28;20095;-66
2021/12/08 11:36:31;;;;;;;10.10;3.20;;;5.70;99.90;;;;;;5030691;28;20044;-66
2021/12/08 11:38:57;;;;;;;7.28;2.83;;;5.80;99.90;;;;;;5030306;28;20041;-66
2021/12/08 11:41:25;;;;;;;7.95;2.50;;;5.90;99.90;;;;;;5030073;28;20048;-66
2021/12/08 11:43:56;;;;;;;8.82;2.60;;;5.90;99.90;;;;;;5046195;28;20063;-68
2021/12/08 11:46:23;;;;;;;4.10;2.63;;;5.90;99.90;;;;;;5029236;28;20504;-67
2021/12/08 11:48:56;;;;;;;8.38;2.70;;;5.90;99.90;;;;;;5014831;28;20036;-66
2021/12/08 11:51:22;;;;;;;12.38;3.08;;;5.90;99.90;;;;;;5032181;28;20508;-65
2021/12/08 11:53:47;;;;;;;9.77;2.95;;;5.90;99.90;;;;;;5015019;28;20055;-66
2021/12/08 11:56:48;;;;;;;8.20;2.50;;;5.90;99.90;;;;;;5030267;28;20542;-68
2021/12/08 11:59:14;;;;;;;9.30;2.97;;;5.90;99.90;;;;;;5028943;28;20439;-65
2021/12/08 12:01:40;;;;;;;11.93;2.63;;;5.90;99.90;;;;;;5027381;28;20037;-65
2021/12/08 12:04:10;;;;;;;5.60;2.47;;;5.90;99.90;;;;;;5044311;28;20476;-68
2021/12/08 12:06:37;;;;;;;7.32;2.50;;;5.90;99.90;;;;;;5031586;28;20053;-66
2021/12/08 12:09:06;;;;;;;5.43;2.35;;;6.00;99.90;;;;;;5048804;28;20041;-66
2021/12/08 12:11:32;;;;;;;5.28;2.55;;;6.00;99.90;;;;;;5030831;28;20060;-67
2021/12/08 12:14:00;;;;;;;7.45;2.20;;;6.00;99.90;;;;;;5042171;28;20037;-66
2021/12/08 12:16:26;;;;;;;11.68;2.90;;;6.00;99.90;;;;;;5017780;28;20041;-65
2021/12/08 12:18:56;;;;;;;8.40;3.47;;;6.00;99.90;;;;;;5030512;28;20471;-66
2021/12/08 12:21:31;;;;;;;6.32;2.33;;;6.00;99.90;;;;;;5030074;28;20041;-66
2021/12/08 12:24:18;;;;;;;4.38;2.58;;;6.00;99.90;;;;;;5019536;28;20463;-65
2021/12/08 12:27:17;;;;;;;8.45;2.47;;;6.00;99.90;;;;;;5018677;28;20151;-68
2021/12/08 12:30:04;;;;;;;9.70;2.38;;;5.90;99.90;;;;;;5032779;28;20036;-66
2021/12/08 12:32:47;;;;;;;5.95;2.22;;;5.90;99.90;;;;;;5033453;28;20052;-65
2021/12/08 12:35:31;;;;;;;6.60;2.97;;;5.90;99.90;;;;;;5053714;28;20433;-67
2021/12/08 12:38:08;;;;;;;5.50;2.58;;;5.90;99.90;;;;;;5052991;28;20087;-65
2021/12/08 12:40:51;;;;;;;8.15;2.15;;;5.80;99.90;;;;;;5030442;28;20155;-64
2021/12/08 12:43:45;;;;;;;6.15;2.20;;;5.90;99.90;;;;;;5031327;28;20049;-67
2021/12/08 12:46:14;;;;;;;10.30;2.53;;;5.90;99.90;;;;;;5030627;28;20049;-67
2021/12/08 12:48:40;;;;;;;8.85;2.53;;;5.90;99.90;;;;;;5018585;28;20052;-66
2021/12/08 12:51:08;;;;;;;6.25;2.42;;;5.90;99.90;;;;;;5035488;28;20045;-65
2021/12/08 12:53:45;;;;;;;8.38;2.75;;;5.90;99.90;;;;;;5052230;28;20115;-67
2021/12/08 12:56:18;;;;;;;11.95;2.22;;;5.90;99.90;;;;;;5034728;28;20052;-67
2021/12/08 12:58:45;;;;;;;9.70;2.28;;;5.80;99.90;;;;;;5016097;28;20495;-68
2021/12/08 13:01:14;;;;;;;12.98;2.60;;;5.80;99.90;;;;;;5033909;28;20041;-66
2021/12/08 13:03:49;;;;;;;6.00;2.20;;;5.90;99.90;;;;;;5034071;28;20373;-68
2021/12/08 13:06:36;;;;;;;5.68;2.53;;;5.80;99.90;;;;;;5035242;28;20128;-70
2021/12/08 13:09:03;;;;;;;8.02;2.38;;;5.80;99.90;;;;;;5017841;28;20090;-67
2021/12/08 13:11:55;;;;;;;10.38;2.47;;;5.80;99.90;;;;;;5034661;28;20087;-65
2021/12/08 13:14:23;;;;;;;5.57;2.25;;;5.80;99.90;;;;;;5030131;28;20083;-67
2021/12/08 13:17:18;;;;;;;11.07;2.10;;;5.90;99.90;;;;;;5033357;28;20072;-68
2021/12/08 13:19:50;;;;;;;8.18;2.50;;;5.90;99.90;;;;;;5029456;28;20062;-69
2021/12/08 13:22:44;;;;;;;6.57;2.13;;;5.90;99.90;;;;;;5012135;28;20045;-66
2021/12/08 13:25:25;;;;;;;11.15;2.35;;;5.90;99.90;;;;;;5012278;28;20413;-68
2021/12/08 13:28:06;;;;;;;7.95;2.90;;;5.90;99.90;;;;;;4995904;28;20128;-71
2021/12/08 13:30:32;;;;;;;10.98;2.08;;;5.90;99.90;;;;;;5013044;28;20116;-67
2021/12/08 13:33:07;;;;;;;7.85;2.25;;;5.90;99.90;;;;;;5014082;28;20580;-68
2021/12/08 13:35:37;;;;;;;5.30;2.53;;;5.90;99.90;;;;;;4998551;28;20411;-67
2021/12/08 13:38:04;;;;;;;3.70;1.85;;;5.90;99.90;;;;;;5013482;28;20049;-67
2021/12/08 13:40:40;;;;;;;3.92;2.13;;;5.90;99.90;;;;;;5004311;28;20132;-67
2021/12/08 13:43:07;;;;;;;8.32;2.22;;;5.90;99.90;;;;;;5011691;28;20453;-67
2021/12/08 13:45:43;;;;;;;7.40;2.13;;;6.00;99.90;;;;;;4996468;28;20160;-67
2021/12/08 13:48:09;;;;;;;7.55;2.03;;;5.90;99.90;;;;;;5010398;28;20042;-67
2021/12/08 13:50:36;;;;;;;5.38;1.90;;;5.90;99.90;;;;;;5012169;28;20056;-67
2021/12/08 13:53:10;;;;;;;7.95;2.40;;;5.90;99.90;;;;;;5012306;28;20052;-67
2021/12/08 13:55:40;;;;;;;6.97;2.97;;;5.90;99.90;;;;;;5014398;28;20049;-66
2021/12/08 13:58:16;;;;;;;6.90;2.35;;;5.90;99.90;;;;;;4994804;28;20191;-66
2021/12/08 14:00:47;;;;;;;6.88;2.33;;;5.90;99.90;;;;;;5009660;28;20112;-67
2021/12/08 14:03:20;;;;;;;5.20;2.20;;;5.90;99.90;;;;;;5014016;28;20112;-65
2021/12/08 14:05:50;;;;;;;7.80;2.47;;;5.90;99.90;;;;;;5014737;28;20094;-67
2021/12/08 14:08:23;;;;;;;5.53;2.00;;;5.90;99.90;;;;;;5012952;28;20041;-67
2021/12/08 14:10:53;;;;;;;6.20;2.22;;;5.90;99.90;;;;;;5014243;28;20034;-66
2021/12/08 14:13:24;;;;;;;3.35;1.83;;;6.00;99.90;;;;;;5011445;28;20056;-66
2021/12/08 14:15:54;;;;;;;5.35;2.08;;;5.90;99.90;;;;;;4996891;28;20029;-66
2021/12/08 14:18:28;;;;;;;8.43;2.22;;;5.80;99.90;;;;;;5013538;28;20052;-66
2021/12/08 14:21:12;;;;;;;8.35;2.10;;;5.70;99.90;;;;;;5024678;28;20099;-66
2021/12/08 14:23:40;;;;;;;5.70;1.70;;;5.60;99.90;;;;;;5024695;28;20041;-69
2021/12/08 14:26:15;;;;;;;7.38;2.58;;;5.50;99.90;;;;;;5013515;28;20125;-67
2021/12/08 14:28:47;;;;;;;7.90;1.80;;;5.40;99.90;;;;;;5030516;28;20463;-66
2021/12/08 14:31:28;;;;;;;4.63;2.00;;;5.30;99.90;;;;;;5050486;28;20116;-67
2021/12/08 14:33:56;;;;;;;8.73;1.98;;;5.20;99.90;;;;;;5034089;28;20064;-67
2021/12/08 14:36:48;;;;;;;10.88;2.58;;;5.20;99.90;;;;;;5033250;28;20099;-68
2021/12/08 14:39:22;;;;;;;5.97;1.75;;;5.20;99.90;;;;;;5016768;28;20108;-71
2021/12/08 14:41:53;;;;;;;8.20;2.00;;;5.20;99.90;;;;;;5032136;28;20094;-70
2021/12/08 14:44:20;;;;;;;;;;;5.10;99.90;;;;;;5032425;28;20118;-72
2021/12/08 14:46:57;;;;;;;8.90;3.17;;;5.00;99.90;;;;;;5032501;28;20015;-70
2021/12/08 14:49:29;;;;;;;26.48;4.43;;;5.00;99.90;;;;;;5012222;28;20147;-68
2021/12/08 14:51:57;;;;;;;23.48;4.13;;;5.00;99.90;;;;;;5030825;28;20063;-66
2021/12/08 14:54:26;;;;;;;10.23;2.63;;;5.00;99.90;;;;;;5033174;28;20040;-66
2021/12/08 14:57:23;;;;;;;11.95;2.95;;;5.10;99.90;;;;;;5031590;28;20480;-67
2021/12/08 14:59:52;;;;;;;5.07;1.80;;;5.00;99.90;;;;;;5018870;28;20061;-67
2021/12/08 15:02:34;;;;;;;4.50;2.10;;;5.00;99.90;;;;;;5029439;28;20072;-67
2021/12/08 15:05:04;;;;;;;7.22;1.80;;;4.90;99.90;;;;;;5033283;28;20091;-67
2021/12/08 15:07:30;;;;;;;5.30;1.80;;;5.00;99.90;;;;;;5032497;28;20048;-67
2021/12/08 15:09:59;;;;;;;6.35;2.40;;;4.90;99.90;;;;;;5050845;28;20091;-67
2021/12/08 15:12:24;;;;;;;10.88;2.20;;;4.80;99.90;;;;;;5030663;28;20056;-67
2021/12/08 15:14:50;;;;;;;5.75;2.10;;;4.60;99.90;;;;;;5031570;28;20041;-67
2021/12/08 15:17:29;;;;;;;9.10;1.90;;;4.60;99.90;;;;;;5031783;28;20047;-67
2021/12/08 15:19:55;;;;;;;3.33;1.55;;;4.60;99.90;;;;;;5050538;28;20053;-68
2021/12/08 15:22:39;;;;;;;6.03;2.47;;;4.70;99.90;;;;;;5050265;28;20040;-66
2021/12/08 15:25:13;;;;;;;8.07;2.20;;;4.60;99.90;;;;;;5032663;28;20061;-67
2021/12/08 15:27:39;;;;;;;7.30;2.25;;;4.60;99.90;;;;;;5029415;28;20048;-67
2021/12/08 15:30:10;;;;;;;9.90;2.40;;;4.60;99.90;;;;;;5031181;28;20037;-66
2021/12/08 15:32:36;;;;;;;6.78;3.08;;;4.50;99.90;;;;;;5032526;28;20048;-67
2021/12/08 15:35:03;;;;;;;10.93;3.00;;;4.40;99.90;;;;;;5032476;28;20036;-68
2021/12/08 15:37:31;;;;;;;77.78;8.20;;;4.30;99.90;;;;;;5031641;28;20057;-67
2021/12/08 15:39:57;;;;;;;6.60;2.63;;;4.40;99.90;;;;;;5032451;28;20051;-67
2021/12/08 15:42:24;;;;;;;8.20;2.47;;;4.30;99.90;;;;;;5030703;28;20064;-67
2021/12/08 15:44:54;;;;;;;5.10;2.20;;;4.30;99.90;;;;;;5011522;28;20083;-67
2021/12/08 15:47:20;;;;;;;5.50;2.50;;;4.20;99.90;;;;;;5017338;28;20033;-66
2021/12/08 15:49:46;;;;;;;9.68;2.28;;;4.20;99.90;;;;;;5030629;28;20091;-66
2021/12/08 15:52:17;;;;;;;6.60;2.10;;;4.20;99.90;;;;;;5028655;28;20449;-66
2021/12/08 15:54:45;;;;;;;8.45;2.20;;;4.20;99.90;;;;;;5029946;28;20097;-65
2021/12/08 15:57:21;;;;;;;8.70;2.45;;;4.00;99.90;;;;;;5029018;28;20052;-66
2021/12/08 15:59:52;;;;;;;5.20;2.03;;;4.00;99.90;;;;;;5016777;28;20033;-67
2021/12/08 16:02:25;;;;;;;5.30;2.20;;;3.90;99.90;;;;;;5030999;28;20119;-67
2021/12/08 16:04:54;;;;;;;5.95;2.10;;;3.80;99.90;;;;;;5030665;28;20037;-67
2021/12/08 16:07:26;;;;;;;8.60;2.80;;;3.80;99.90;;;;;;4997038;28;20045;-67
2021/12/08 16:09:52;;;;;;;4.30;2.25;;;3.70;99.90;;;;;;5012599;28;20049;-66
2021/12/08 16:12:18;;;;;;;7.60;2.17;;;3.60;99.90;;;;;;5023091;28;20059;-68
2021/12/08 16:14:54;;;;;;;4.20;2.00;;;3.70;99.90;;;;;;5030120;28;20515;-67
2021/12/08 16:17:31;;;;;;;5.93;2.22;;;3.60;99.90;;;;;;5031503;28;20080;-67
2021/12/08 16:20:09;;;;;;;4.25;2.40;;;3.50;99.90;;;;;;5048776;28;20119;-67
2021/12/08 16:22:35;;;;;;;7.35;2.30;;;3.40;99.90;;;;;;5042978;28;20119;-67
2021/12/08 16:25:02;;;;;;;6.88;2.85;;;3.30;99.90;;;;;;5031622;28;20128;-67
2021/12/08 16:27:29;;;;;;;7.93;2.25;;;3.30;99.90;;;;;;5021219;28;20052;-67
2021/12/08 16:29:56;;;;;;;4.57;2.60;;;3.30;99.90;;;;;;4994084;28;20464;-67
2021/12/08 16:32:23;;;;;;;5.18;2.30;;;3.20;99.90;;;;;;5039171;28;20044;-67
2021/12/08 16:34:52;;;;;;;5.63;2.28;;;3.20;99.90;;;;;;5028318;28;20037;-67
2021/12/08 16:37:19;;;;;;;5.78;2.33;;;3.10;99.90;;;;;;5032276;28;20056;-67
2021/12/08 16:45:03;;;;;;;5.40;1.92;;;3.00;99.90;;;;;;5017315;28;20052;-67
2021/12/08 16:47:30;;;;;;;5.40;2.20;;;3.00;99.90;;;;;;5030708;28;20044;-67
2021/12/08 16:49:56;;;;;;;8.82;2.45;;;3.10;99.90;;;;;;5019415;28;20048;-67
2021/12/08 16:52:22;;;;;;;4.95;2.25;;;3.00;99.90;;;;;;5030647;28;20423;-67
2021/12/08 16:54:51;;;;;;;6.57;2.40;;;2.90;99.90;;;;;;5028522;28;20194;-67
2021/12/08 16:57:17;;;;;;;5.55;2.50;;;2.90;99.90;;;;;;5012947;28;20123;-67
2021/12/08 16:59:42;;;;;;;5.25;1.88;;;3.00;99.90;;;;;;5028963;28;20037;-67
2021/12/08 17:02:08;;;;;;;5.90;2.35;;;2.90;99.90;;;;;;5031100;28;20575;-68
2021/12/08 17:04:34;;;;;;;6.75;2.67;;;2.80;99.90;;;;;;5031495;28;20123;-67
2021/12/08 17:06:59;;;;;;;9.43;2.72;;;2.80;99.90;;;;;;5030976;28;20563;-68
2021/12/08 17:09:25;;;;;;;5.03;2.90;;;2.80;99.90;;;;;;5030917;28;20531;-67
2021/12/08 17:11:51;;;;;;;7.32;2.90;;;2.90;99.90;;;;;;5029709;28;20372;-67
2021/12/08 17:14:16;;;;;;;5.93;2.40;;;2.90;99.90;;;;;;5027688;28;20432;-67
2021/12/08 17:16:42;;;;;;;6.35;2.60;;;2.90;99.90;;;;;;5033918;28;20044;-68
2021/12/08 17:19:11;;;;;;;4.13;2.70;;;2.80;99.90;;;;;;5035126;28;20465;-67
2021/12/08 17:21:43;;;;;;;6.97;2.92;;;2.80;99.90;;;;;;5034533;28;20067;-67
2021/12/08 17:24:10;;;;;;;6.60;2.30;;;2.80;99.90;;;;;;5032629;28;20149;-67
2021/12/08 17:26:36;;;;;;;6.45;2.90;;;2.80;99.90;;;;;;5050234;28;20095;-68
2021/12/08 17:29:06;;;;;;;4.03;2.25;;;2.80;99.90;;;;;;5026470;28;20403;-67
2021/12/08 17:31:32;;;;;;;7.05;2.40;;;2.70;99.90;;;;;;5033828;28;20060;-67
2021/12/08 17:33:58;;;;;;;4.20;2.28;;;2.70;99.90;;;;;;5035017;28;20136;-68
2021/12/08 17:36:24;;;;;;;4.90;2.60;;;2.70;99.90;;;;;;5017750;28;20037;-68
2021/12/08 17:38:49;;;;;;;4.70;2.10;;;2.60;99.90;;;;;;5034564;28;20201;-68
2021/12/08 17:41:15;;;;;;;8.40;3.20;;;2.60;99.90;;;;;;5018236;28;20037;-68
2021/12/08 17:43:41;;;;;;;7.40;2.63;;;2.70;99.90;;;;;;5032051;28;20090;-67
2021/12/08 17:46:08;;;;;;;4.65;2.97;;;2.70;99.90;;;;;;5016549;28;20203;-67
2021/12/08 17:48:34;;;;;;;7.90;3.40;;;2.70;99.90;;;;;;5030881;28;20045;-68
2021/12/08 17:51:03;;;;;;;6.63;3.00;;;2.70;99.90;;;;;;5031792;28;20051;-68
2021/12/08 17:53:29;;;;;;;7.00;3.10;;;2.70;99.90;;;;;;5010653;28;20037;-68
2021/12/08 17:55:55;;;;;;;7.40;3.30;;;2.70;99.90;;;;;;5030179;28;20060;-67
2021/12/08 17:58:22;;;;;;;7.82;2.72;;;2.70;99.90;;;;;;5029654;28;20041;-67
2021/12/08 18:00:51;;;;;;;5.65;2.70;;;2.60;99.90;;;;;;5030764;28;20049;-67
2021/12/08 18:03:18;;;;;;;6.80;2.60;;;2.60;99.90;;;;;;5031322;28;20343;-68
2021/12/08 18:05:44;;;;;;;7.70;2.67;;;2.60;99.90;;;;;;5050067;28;20629;-68
2021/12/08 18:08:12;;;;;;;8.43;3.20;;;2.60;99.90;;;;;;5031465;28;20052;-66
2021/12/08 18:10:38;;;;;;;5.85;2.80;;;2.60;99.90;;;;;;5031453;28;20131;-68
2021/12/08 18:13:04;;;;;;;5.65;2.90;;;2.70;99.90;;;;;;5012991;28;20037;-66
2021/12/08 18:15:30;;;;;;;10.63;3.00;;;2.70;99.90;;;;;;5013163;28;20077;-67
2021/12/08 18:17:56;;;;;;;8.60;2.92;;;2.70;99.90;;;;;;5049377;28;20081;-67
2021/12/08 18:20:24;;;;;;;10.90;3.08;;;2.70;99.90;;;;;;5032755;28;20113;-67
2021/12/08 18:22:51;;;;;;;8.68;3.10;;;2.80;99.90;;;;;;5029097;28;20507;-67
2021/12/08 18:25:17;;;;;;;7.72;2.80;;;2.80;99.90;;;;;;5028716;28;20039;-67
2021/12/08 18:27:43;;;;;;;9.70;3.70;;;2.80;99.90;;;;;;5030878;28;20678;-68
2021/12/08 18:30:12;;;;;;;6.38;2.60;;;2.90;99.90;;;;;;5050383;28;20045;-68
2021/12/08 18:32:38;;;;;;;11.77;3.72;;;3.10;99.90;;;;;;5033393;28;20048;-66
2021/12/08 18:35:25;;;;;;;7.25;3.22;;;3.20;99.90;;;;;;5031497;28;20047;-67
2021/12/08 18:37:51;;;;;;;8.63;3.40;;;3.30;99.90;;;;;;5001006;28;20349;-68
2021/12/08 18:40:16;;;;;;;6.05;3.55;;;3.10;99.90;;;;;;5051273;28;20056;-67
2021/12/08 18:42:42;;;;;;;8.50;3.63;;;3.30;99.90;;;;;;5048611;28;20564;-67
2021/12/08 18:45:08;;;;;;;7.55;3.83;;;3.30;99.90;;;;;;5031827;28;20083;-67
2021/12/08 18:47:34;;;;;;;9.15;3.63;;;3.30;99.90;;;;;;5050601;28;20585;-67
2021/12/08 18:49:59;;;;;;;6.70;3.08;;;3.30;99.90;;;;;;5033205;28;20040;-67
2021/12/08 18:52:25;;;;;;;7.10;3.25;;;3.30;99.90;;;;;;5032370;28;20062;-68
2021/12/08 18:54:51;;;;;;;9.10;3.72;;;3.10;99.90;;;;;;5032900;28;20431;-66
2021/12/08 18:57:16;;;;;;;6.45;3.45;;;3.10;99.90;;;;;;5049460;28;20037;-67
2021/12/08 18:59:43;;;;;;;10.00;3.53;;;3.20;99.90;;;;;;5029469;28;20203;-67
2021/12/08 19:02:09;;;;;;;6.95;3.92;;;3.30;99.90;;;;;;5031761;28;20040;-66
2021/12/08 19:04:35;;;;;;;6.68;3.75;;;3.20;99.90;;;;;;5033068;28;20099;-67
2021/12/08 19:07:04;;;;;;;10.98;4.32;;;3.20;99.90;;;;;;5032495;28;20132;-66
2021/12/08 19:09:31;;;;;;;6.38;3.20;;;3.20;99.90;;;;;;5014490;28;20061;-67
2021/12/08 19:11:59;;;;;;;5.30;3.40;;;3.10;99.90;;;;;;5026656;28;20535;-67
2021/12/08 19:14:26;;;;;;;11.20;4.07;;;3.10;99.90;;;;;;5030378;28;20061;-67
2021/12/08 19:16:52;;;;;;;8.98;3.47;;;3.10;99.90;;;;;;5031307;28;20063;-67
2021/12/08 19:19:17;;;;;;;7.95;3.50;;;3.10;99.90;;;;;;5010869;28;20045;-67
2021/12/08 19:21:43;;;;;;;8.50;3.55;;;3.10;99.90;;;;;;5032030;28;20136;-67
2021/12/08 19:24:09;;;;;;;12.32;4.38;;;3.20;99.90;;;;;;5032069;28;20130;-67
2021/12/08 19:26:35;;;;;;;11.88;4.03;;;3.10;99.90;;;;;;5027552;28;20048;-66
2021/12/08 19:29:01;;;;;;;11.02;4.00;;;3.20;99.90;;;;;;5039065;28;20346;-66
2021/12/08 19:31:27;;;;;;;5.38;4.03;;;3.20;99.90;;;;;;5014793;28;20051;-67
2021/12/08 19:33:57;;;;;;;9.27;4.10;;;3.20;99.90;;;;;;5026033;28;20048;-67
2021/12/08 19:36:25;;;;;;;9.27;4.70;;;3.10;99.90;;;;;;5034991;28;20128;-68
2021/12/08 19:38:53;;;;;;;8.05;3.92;;;3.00;99.90;;;;;;5030883;28;20420;-66
2021/12/08 19:41:20;;;;;;;8.68;4.13;;;3.00;99.90;;;;;;5031490;28;20041;-67
2021/12/08 19:43:45;;;;;;;8.13;3.80;;;3.10;99.90;;;;;;5026265;28;20033;-66
2021/12/08 19:46:11;;;;;;;9.95;3.90;;;3.10;99.90;;;;;;5030348;28;20440;-66
2021/12/08 19:48:38;;;;;;;10.70;4.13;;;3.20;99.90;;;;;;5031408;28;20049;-67
2021/12/08 19:51:05;;;;;;;8.77;3.72;;;3.20;99.90;;;;;;5031235;28;20114;-65
2021/12/08 19:53:31;;;;;;;9.25;3.47;;;3.10;99.90;;;;;;5049696;28;20098;-67
2021/12/08 19:55:57;;;;;;;8.68;3.90;;;3.10;99.90;;;;;;5031374;28;20132;-67
2021/12/08 19:58:23;;;;;;;11.82;3.97;;;3.20;99.90;;;;;;5028408;28;20410;-66
2021/12/08 20:00:50;;;;;;;8.25;4.28;;;3.10;99.90;;;;;;5030221;28;20139;-67
2021/12/08 20:03:17;;;;;;;9.43;4.05;;;3.00;99.90;;;;;;5049435;28;20484;-67
2021/12/08 20:05:44;;;;;;;13.05;4.72;;;3.00;99.90;;;;;;5032217;28;20040;-67
2021/12/08 20:08:11;;;;;;;11.90;3.65;;;3.00;99.90;;;;;;5023386;28;20095;-67
2021/12/08 20:10:38;;;;;;;11.13;4.10;;;2.90;99.90;;;;;;5012896;28;20124;-67
2021/12/08 20:13:07;;;;;;;5.20;3.70;;;2.90;99.90;;;;;;5025072;28;20551;-67
2021/12/08 20:15:35;;;;;;;10.32;4.25;;;2.80;99.90;;;;;;5027332;28;20056;-67
2021/12/08 20:18:00;;;;;;;9.88;4.15;;;2.80;99.90;;;;;;5011455;28;20081;-67
2021/12/08 20:20:26;;;;;;;7.53;4.40;;;2.70;99.90;;;;;;5030482;28;20064;-67
2021/12/08 20:22:52;;;;;;;6.75;3.63;;;2.60;99.90;;;;;;5013775;28;20074;-67
2021/12/08 20:25:20;;;;;;;9.35;3.90;;;2.50;99.90;;;;;;5050056;28;20121;-67
2021/12/08 20:27:48;;;;;;;10.20;3.97;;;2.50;99.90;;;;;;5028990;28;20160;-67
2021/12/08 20:30:15;;;;;;;7.43;4.05;;;2.40;99.90;;;;;;5048785;28;20045;-68
2021/12/08 20:32:41;;;;;;;8.75;4.75;;;2.40;99.90;;;;;;5030569;28;20401;-68
2021/12/08 20:35:09;;;;;;;10.68;4.40;;;2.30;99.90;;;;;;5031473;28;20045;-68
2021/12/08 20:37:35;;;;;;;8.93;4.03;;;2.20;99.90;;;;;;5028868;28;20135;-68
2021/12/08 20:40:02;;;;;;;11.45;4.18;;;2.30;99.90;;;;;;5052499;28;20459;-68
2021/12/08 20:42:28;;;;;;;9.45;4.20;;;2.20;99.90;;;;;;5028003;28;20041;-67
2021/12/08 20:44:53;;;;;;;8.70;3.65;;;2.10;99.90;;;;;;5048149;28;20427;-68
2021/12/08 20:47:21;;;;;;;8.02;3.83;;;2.10;99.90;;;;;;5049166;28;20041;-68
2021/12/08 20:49:47;;;;;;;9.60;4.35;;;2.00;99.90;;;;;;5034233;28;20041;-68
2021/12/08 20:52:13;;;;;;;9.02;4.18;;;1.90;99.90;;;;;;5033309;28;20473;-67
2021/12/08 20:54:39;;;;;;;10.55;3.63;;;1.90;99.90;;;;;;5034215;28;20116;-67
2021/12/08 20:57:07;;;;;;;9.27;4.25;;;1.80;99.90;;;;;;5033668;28;20033;-68
2021/12/08 20:59:38;;;;;;;11.57;4.03;;;1.80;99.90;;;;;;5033010;28;20045;-67
2021/12/08 21:02:08;;;;;;;12.80;4.22;;;1.80;99.90;;;;;;5052841;28;20152;-67
2021/12/08 21:04:34;;;;;;;8.85;4.78;;;1.70;99.90;;;;;;5031800;28;20044;-68
2021/12/08 21:07:01;;;;;;;6.85;4.45;;;1.70;99.90;;;;;;5033676;28;20037;-67
2021/12/08 21:09:28;;;;;;;7.65;4.38;;;1.70;99.90;;;;;;5034598;28;20060;-67
2021/12/08 21:11:55;;;;;;;8.50;4.70;;;1.70;99.90;;;;;;5032442;28;22437;-67
2021/12/08 21:14:22;;;;;;;12.82;4.88;;;1.60;99.90;;;;;;5029784;28;20447;-67
2021/12/08 21:16:49;;;;;;;13.35;5.57;;;1.50;99.90;;;;;;5018526;28;20041;-68
2021/12/08 21:19:15;;;;;;;10.10;4.45;;;1.50;99.90;;;;;;5017036;28;20401;-67
2021/12/08 21:21:40;;;;;;;16.88;4.80;;;1.50;99.90;;;;;;5052909;28;20164;-68
2021/12/08 21:24:06;;;;;;;10.07;5.00;;;1.50;99.90;;;;;;5017848;28;20183;-67
2021/12/08 21:26:32;;;;;;;11.98;4.47;;;1.50;99.90;;;;;;5033697;28;20037;-67
2021/12/08 21:28:58;;;;;;;7.60;4.40;;;1.50;99.90;;;;;;5029044;28;20144;-67
2021/12/08 21:31:24;;;;;;;8.23;4.35;;;1.50;99.90;;;;;;5014796;28;20074;-68
2021/12/08 21:33:56;;;;;;;9.63;5.57;;;1.50;99.90;;;;;;5031373;28;20124;-68
2021/12/08 21:36:23;;;;;;;12.35;5.45;;;1.50;99.90;;;;;;5051265;28;20139;-67
2021/12/08 21:38:49;;;;;;;8.80;4.88;;;1.40;99.90;;;;;;5051771;28;20068;-67
2021/12/08 21:41:16;;;;;;;11.00;5.00;;;1.50;99.90;;;;;;5030735;28;20052;-68
2021/12/08 21:43:50;;;;;;;8.07;4.47;;;1.50;99.90;;;;;;5010797;28;20052;-67
2021/12/08 21:46:17;;;;;;;12.88;4.82;;;1.50;99.90;;;;;;5018590;28;20033;-67
2021/12/08 21:48:44;;;;;;;8.10;4.93;;;1.40;99.90;;;;;;5034569;28;20041;-68
2021/12/08 21:51:10;;;;;;;9.98;5.10;;;1.40;99.90;;;;;;5034243;28;20044;-68
2021/12/08 21:53:38;;;;;;;10.82;4.93;;;1.40;99.90;;;;;;5033840;28;20056;-67
2021/12/08 21:56:05;;;;;;;8.98;4.78;;;1.40;99.90;;;;;;5050424;28;20076;-68
2021/12/08 21:58:31;;;;;;;10.73;4.97;;;1.30;99.90;;;;;;5047895;28;20052;-68
2021/12/08 22:00:57;;;;;;;9.38;5.00;;;1.30;99.90;;;;;;5035048;28;20045;-67
2021/12/08 22:03:24;;;;;;;9.07;4.80;;;1.20;99.90;;;;;;5035126;28;20473;-68
2021/12/08 22:05:50;;;;;;;10.32;4.65;;;1.20;99.90;;;;;;5033043;28;20041;-68
2021/12/08 22:08:17;;;;;;;10.32;4.95;;;1.20;99.90;;;;;;5029995;28;20461;-68
2021/12/08 22:10:45;;;;;;;12.43;5.22;;;1.10;99.90;;;;;;5032909;28;20511;-68
2021/12/08 22:13:12;;;;;;;12.98;5.80;;;1.10;99.90;;;;;;5029016;28;20473;-67
2021/12/08 22:15:44;;;;;;;13.07;5.03;;;1.10;99.90;;;;;;5044245;28;20037;-68
2021/12/08 22:18:15;;;;;;;10.82;5.63;;;1.10;99.90;;;;;;5035346;28;20045;-67
2021/12/08 22:20:41;;;;;;;9.63;4.35;;;1.30;99.90;;;;;;5030943;28;20059;-68
2021/12/08 22:23:08;;;;;;;9.65;5.10;;;1.30;99.90;;;;;;5028869;28;20071;-68
2021/12/08 22:25:34;;;;;;;10.50;4.78;;;1.40;99.90;;;;;;5015326;28;20068;-67
2021/12/08 22:28:00;;;;;;;12.75;6.32;;;1.30;99.90;;;;;;5047701;28;20345;-68
2021/12/08 22:30:26;;;;;;;10.18;4.90;;;1.40;99.90;;;;;;5030901;28;20045;-67
2021/12/08 22:32:52;;;;;;;10.55;5.00;;;1.40;99.90;;;;;;5049495;28;20047;-67
2021/12/08 22:35:19;;;;;;;8.63;4.45;;;1.40;99.90;;;;;;5028595;28;20044;-68
2021/12/08 22:37:45;;;;;;;14.13;5.25;;;1.40;99.90;;;;;;5025670;28;20045;-68
2021/12/08 22:40:14;;;;;;;12.07;4.63;;;1.50;99.90;;;;;;5032273;28;20045;-68
2021/12/08 22:42:40;;;;;;;8.25;4.63;;;1.50;99.90;;;;;;5008157;28;20044;-68
2021/12/08 22:45:10;;;;;;;8.98;4.50;;;1.60;99.90;;;;;;5028287;28;20045;-68
2021/12/08 22:47:37;;;;;;;10.10;5.05;;;1.60;99.90;;;;;;5025773;28;20072;-67
2021/12/08 22:50:07;;;;;;;10.52;4.93;;;1.60;99.90;;;;;;5030157;28;20396;-67
2021/12/08 22:52:33;;;;;;;14.13;4.47;;;1.60;99.90;;;;;;5014342;28;20139;-68
2021/12/08 22:54:58;;;;;;;12.38;5.40;;;1.50;99.90;;;;;;5032907;28;20084;-67
2021/12/08 22:57:24;;;;;;;11.35;4.50;;;1.40;99.90;;;;;;5028506;28;20079;-68
2021/12/08 22:59:49;;;;;;;8.02;4.72;;;1.30;99.90;;;;;;5030802;28;20132;-68
2021/12/08 23:02:15;;;;;;;14.75;5.03;;;1.20;99.90;;;;;;5028022;28;20036;-68
2021/12/08 23:04:41;;;;;;;7.93;4.95;;;1.20;99.90;;;;;;5034135;28;20044;-67
2021/12/08 23:07:07;;;;;;;14.18;5.25;;;1.30;99.90;;;;;;5032273;28;20040;-68
2021/12/08 23:09:33;;;;;;;12.05;5.50;;;1.40;99.90;;;;;;5023893;28;20102;-67
2021/12/08 23:11:59;;;;;;;12.85;5.10;;;1.40;99.90;;;;;;5030502;28;20492;-68
2021/12/08 23:14:24;;;;;;;10.82;5.53;;;1.30;99.90;;;;;;5013932;28;20052;-68
2021/12/08 23:16:50;;;;;;;9.98;4.70;;;1.30;99.90;;;;;;5013477;28;20484;-67
2021/12/08 23:19:20;;;;;;;10.55;4.57;;;1.20;99.90;;;;;;5014218;28;20171;-68
2021/12/08 23:21:47;;;;;;;13.60;4.88;;;1.20;99.90;;;;;;5030107;28;20056;-68
2021/12/08 23:24:13;;;;;;;9.15;5.20;;;1.10;99.90;;;;;;5047405;28;20048;-68
2021/12/08 23:26:40;;;;;;;9.73;4.82;;;1.10;99.90;;;;;;5031070;28;20447;-68
2021/12/08 23:29:08;;;;;;;13.80;5.22;;;1.10;99.90;;;;;;5027636;28;20041;-68
2021/12/08 23:31:34;;;;;;;9.10;5.43;;;1.00;99.90;;;;;;5029341;28;20133;-67
2021/12/08 23:34:02;;;;;;;7.22;4.80;;;0.90;99.90;;;;;;5031868;28;20044;-68
2021/12/08 23:36:40;;;;;;;9.40;5.05;;;0.90;99.90;;;;;;5026599;28;20111;-67
2021/12/08 23:39:06;;;;;;;13.88;5.95;;;0.80;99.90;;;;;;5026835;28;20141;-67
2021/12/08 23:41:34;;;;;;;16.17;7.03;;;0.80;99.90;;;;;;5048399;28;20060;-68
2021/12/08 23:44:03;;;;;;;12.38;5.82;;;0.80;99.90;;;;;;5026974;28;20128;-68
2021/12/08 23:46:29;;;;;;;15.93;6.65;;;0.70;99.90;;;;;;5022686;28;20045;-67
2021/12/08 23:48:55;;;;;;;9.52;5.72;;;0.70;99.90;;;;;;5015938;28;20087;-67
2021/12/08 23:51:21;;;;;;;13.77;5.60;;;0.70;99.90;;;;;;5005350;28;20047;-67
2021/12/08 23:53:49;;;;;;;11.50;5.45;;;0.70;99.90;;;;;;4997023;28;20045;-67
2021/12/08 23:56:17;;;;;;;11.23;5.57;;;0.70;99.90;;;;;;5003706;28;20029;-67
2021/12/08 23:58:47;;;;;;;12.05;6.07;;;0.80;99.90;;;;;;4994560;28;22332;-67
